sensor_id;sensor_type;location;lat;lon;timestamp;P1;durP1;ratioP1;P2;durP2;ratioP2
32214;SDS011;18708;53.124;23.190;2023-04-25T00:01:21;5.18;;;4.03;;
32214;SDS011;18708;53.124;23.190;2023-04-25T00:03:47;7.43;;;4.35;;
32214;SDS011;18708;53.124;23.190;2023-04-25T00:06:13;5.50;;;4.43;;
32214;SDS011;18708;53.124;23.190;2023-04-25T00:08:39;4.60;;;4.10;;
32214;SDS011;18708;53.124;23.190;2023-04-25T00:11:05;5.50;;;4.03;;
32214;SDS011;18708;53.124;23.190;2023-04-25T00:13:31;8.15;;;4.50;;
32214;SDS011;18708;53.124;23.190;2023-04-25T00:15:57;6.03;;;3.97;;
32214;SDS011;18708;53.124;23.190;2023-04-25T00:18:25;5.93;;;4.00;;
32214;SDS011;18708;53.124;23.190;2023-04-25T00:20:54;5.75;;;4.47;;
32214;SDS011;18708;53.124;23.190;2023-04-25T00:23:20;5.22;;;4.47;;
32214;SDS011;18708;53.124;23.190;2023-04-25T00:25:48;5.85;;;4.30;;
32214;SDS011;18708;53.124;23.190;2023-04-25T00:28:14;7.07;;;4.40;;
32214;SDS011;18708;53.124;23.190;2023-04-25T00:30:43;7.28;;;4.22;;
32214;SDS011;18708;53.124;23.190;2023-04-25T00:33:09;8.52;;;4.38;;
32214;SDS011;18708;53.124;23.190;2023-04-25T00:35:35;4.97;;;4.20;;
32214;SDS011;18708;53.124;23.190;2023-04-25T00:38:01;5.53;;;4.22;;
32214;SDS011;18708;53.124;23.190;2023-04-25T00:40:27;6.30;;;4.65;;
32214;SDS011;18708;53.124;23.190;2023-04-25T00:42:53;8.95;;;5.00;;
32214;SDS011;18708;53.124;23.190;2023-04-25T00:45:19;5.78;;;4.25;;
32214;SDS011;18708;53.124;23.190;2023-04-25T00:47:45;5.50;;;4.45;;
32214;SDS011;18708;53.124;23.190;2023-04-25T00:50:14;7.13;;;5.07;;
32214;SDS011;18708;53.124;23.190;2023-04-25T00:52:40;7.18;;;4.32;;
32214;SDS011;18708;53.124;23.190;2023-04-25T00:55:09;8.18;;;4.90;;
32214;SDS011;18708;53.124;23.190;2023-04-25T00:57:37;6.40;;;4.88;;
32214;SDS011;18708;53.124;23.190;2023-04-25T01:00:07;7.10;;;4.60;;
32214;SDS011;18708;53.124;23.190;2023-04-25T01:02:34;7.03;;;4.65;;
32214;SDS011;18708;53.124;23.190;2023-04-25T01:05:01;8.27;;;4.63;;
32214;SDS011;18708;53.124;23.190;2023-04-25T01:07:27;5.45;;;4.57;;
32214;SDS011;18708;53.124;23.190;2023-04-25T01:09:53;7.93;;;4.97;;
32214;SDS011;18708;53.124;23.190;2023-04-25T01:12:19;5.78;;;4.53;;
32214;SDS011;18708;53.124;23.190;2023-04-25T01:14:46;6.65;;;4.47;;
32214;SDS011;18708;53.124;23.190;2023-04-25T01:17:12;6.35;;;4.75;;
32214;SDS011;18708;53.124;23.190;2023-04-25T01:19:38;7.15;;;4.72;;
32214;SDS011;18708;53.124;23.190;2023-04-25T01:22:03;7.97;;;4.97;;
32214;SDS011;18708;53.124;23.190;2023-04-25T01:24:32;8.02;;;4.80;;
32214;SDS011;18708;53.124;23.190;2023-04-25T01:26:59;8.50;;;4.85;;
32214;SDS011;18708;53.124;23.190;2023-04-25T01:29:26;6.40;;;4.90;;
32214;SDS011;18708;53.124;23.190;2023-04-25T01:31:53;6.85;;;5.45;;
32214;SDS011;18708;53.124;23.190;2023-04-25T01:34:19;7.68;;;5.38;;
32214;SDS011;18708;53.124;23.190;2023-04-25T01:36:46;8.35;;;4.70;;
32214;SDS011;18708;53.124;23.190;2023-04-25T01:39:14;5.57;;;4.90;;
32214;SDS011;18708;53.124;23.190;2023-04-25T01:41:41;8.57;;;5.28;;
32214;SDS011;18708;53.124;23.190;2023-04-25T01:44:06;8.43;;;5.47;;
32214;SDS011;18708;53.124;23.190;2023-04-25T01:46:32;10.45;;;5.25;;
32214;SDS011;18708;53.124;23.190;2023-04-25T01:48:59;6.03;;;5.00;;
32214;SDS011;18708;53.124;23.190;2023-04-25T01:51:25;13.90;;;5.30;;
32214;SDS011;18708;53.124;23.190;2023-04-25T01:53:50;8.68;;;5.22;;
32214;SDS011;18708;53.124;23.190;2023-04-25T01:56:17;5.63;;;4.47;;
32214;SDS011;18708;53.124;23.190;2023-04-25T01:58:43;6.68;;;4.63;;
32214;SDS011;18708;53.124;23.190;2023-04-25T02:01:11;5.93;;;4.68;;
32214;SDS011;18708;53.124;23.190;2023-04-25T02:03:37;6.57;;;5.13;;
32214;SDS011;18708;53.124;23.190;2023-04-25T02:06:03;7.80;;;4.70;;
32214;SDS011;18708;53.124;23.190;2023-04-25T02:08:28;6.82;;;4.88;;
32214;SDS011;18708;53.124;23.190;2023-04-25T02:10:55;9.10;;;5.70;;
32214;SDS011;18708;53.124;23.190;2023-04-25T02:13:21;7.80;;;5.38;;
32214;SDS011;18708;53.124;23.190;2023-04-25T02:15:46;6.57;;;5.30;;
32214;SDS011;18708;53.124;23.190;2023-04-25T02:18:12;8.18;;;5.32;;
32214;SDS011;18708;53.124;23.190;2023-04-25T02:20:41;6.95;;;5.05;;
32214;SDS011;18708;53.124;23.190;2023-04-25T02:23:07;6.55;;;4.72;;
32214;SDS011;18708;53.124;23.190;2023-04-25T02:25:33;7.35;;;5.28;;
32214;SDS011;18708;53.124;23.190;2023-04-25T02:27:59;6.55;;;5.03;;
32214;SDS011;18708;53.124;23.190;2023-04-25T02:30:25;7.97;;;5.13;;
32214;SDS011;18708;53.124;23.190;2023-04-25T02:32:50;8.10;;;5.03;;
32214;SDS011;18708;53.124;23.190;2023-04-25T02:35:19;6.75;;;5.30;;
32214;SDS011;18708;53.124;23.190;2023-04-25T02:37:44;7.03;;;5.28;;
32214;SDS011;18708;53.124;23.190;2023-04-25T02:40:10;7.55;;;5.35;;
32214;SDS011;18708;53.124;23.190;2023-04-25T02:42:36;7.40;;;5.18;;
32214;SDS011;18708;53.124;23.190;2023-04-25T02:45:02;7.57;;;5.35;;
32214;SDS011;18708;53.124;23.190;2023-04-25T02:47:28;6.43;;;5.05;;
32214;SDS011;18708;53.124;23.190;2023-04-25T02:49:54;9.77;;;5.45;;
32214;SDS011;18708;53.124;23.190;2023-04-25T02:52:20;8.32;;;5.45;;
32214;SDS011;18708;53.124;23.190;2023-04-25T02:54:46;6.70;;;5.82;;
32214;SDS011;18708;53.124;23.190;2023-04-25T02:57:12;9.50;;;5.47;;
32214;SDS011;18708;53.124;23.190;2023-04-25T02:59:37;7.18;;;5.65;;
32214;SDS011;18708;53.124;23.190;2023-04-25T03:02:03;14.07;;;5.53;;
32214;SDS011;18708;53.124;23.190;2023-04-25T03:04:29;6.75;;;5.20;;
32214;SDS011;18708;53.124;23.190;2023-04-25T03:06:55;7.95;;;5.40;;
32214;SDS011;18708;53.124;23.190;2023-04-25T03:09:20;11.82;;;5.90;;
32214;SDS011;18708;53.124;23.190;2023-04-25T03:11:46;6.90;;;5.30;;
32214;SDS011;18708;53.124;23.190;2023-04-25T03:14:12;15.02;;;6.60;;
32214;SDS011;18708;53.124;23.190;2023-04-25T03:16:38;10.77;;;6.97;;
32214;SDS011;18708;53.124;23.190;2023-04-25T03:19:04;14.02;;;7.05;;
32214;SDS011;18708;53.124;23.190;2023-04-25T03:21:31;11.77;;;6.55;;
32214;SDS011;18708;53.124;23.190;2023-04-25T03:24:01;13.90;;;6.63;;
32214;SDS011;18708;53.124;23.190;2023-04-25T03:26:27;8.88;;;6.35;;
32214;SDS011;18708;53.124;23.190;2023-04-25T03:28:53;14.02;;;6.97;;
32214;SDS011;18708;53.124;23.190;2023-04-25T03:31:19;14.40;;;7.22;;
32214;SDS011;18708;53.124;23.190;2023-04-25T03:33:45;13.88;;;8.18;;
32214;SDS011;18708;53.124;23.190;2023-04-25T03:36:10;14.32;;;7.32;;
32214;SDS011;18708;53.124;23.190;2023-04-25T03:38:36;12.00;;;7.03;;
32214;SDS011;18708;53.124;23.190;2023-04-25T03:41:02;12.80;;;6.72;;
32214;SDS011;18708;53.124;23.190;2023-04-25T03:43:27;14.23;;;7.32;;
32214;SDS011;18708;53.124;23.190;2023-04-25T03:45:53;11.52;;;6.57;;
32214;SDS011;18708;53.124;23.190;2023-04-25T03:48:19;10.20;;;6.50;;
32214;SDS011;18708;53.124;23.190;2023-04-25T03:50:51;15.50;;;5.97;;
32214;SDS011;18708;53.124;23.190;2023-04-25T03:53:17;7.97;;;5.95;;
32214;SDS011;18708;53.124;23.190;2023-04-25T03:55:43;9.13;;;5.68;;
32214;SDS011;18708;53.124;23.190;2023-04-25T03:58:08;11.27;;;6.20;;
32214;SDS011;18708;53.124;23.190;2023-04-25T04:00:34;7.15;;;6.00;;
32214;SDS011;18708;53.124;23.190;2023-04-25T04:03:00;8.73;;;6.15;;
32214;SDS011;18708;53.124;23.190;2023-04-25T04:05:26;8.25;;;6.45;;
32214;SDS011;18708;53.124;23.190;2023-04-25T04:07:52;8.63;;;6.35;;
32214;SDS011;18708;53.124;23.190;2023-04-25T04:10:18;12.10;;;6.40;;
32214;SDS011;18708;53.124;23.190;2023-04-25T04:12:44;8.25;;;6.20;;
32214;SDS011;18708;53.124;23.190;2023-04-25T04:15:10;10.70;;;6.45;;
32214;SDS011;18708;53.124;23.190;2023-04-25T04:17:36;9.45;;;6.38;;
32214;SDS011;18708;53.124;23.190;2023-04-25T04:20:03;11.57;;;6.30;;
32214;SDS011;18708;53.124;23.190;2023-04-25T04:22:29;16.13;;;7.20;;
32214;SDS011;18708;53.124;23.190;2023-04-25T04:24:55;8.57;;;6.60;;
32214;SDS011;18708;53.124;23.190;2023-04-25T04:27:21;10.73;;;6.10;;
32214;SDS011;18708;53.124;23.190;2023-04-25T04:29:48;11.40;;;5.95;;
32214;SDS011;18708;53.124;23.190;2023-04-25T04:32:16;10.02;;;5.82;;
32214;SDS011;18708;53.124;23.190;2023-04-25T04:34:42;12.18;;;5.63;;
32214;SDS011;18708;53.124;23.190;2023-04-25T04:37:08;7.85;;;5.82;;
32214;SDS011;18708;53.124;23.190;2023-04-25T04:39:35;6.50;;;5.63;;
32214;SDS011;18708;53.124;23.190;2023-04-25T04:42:01;8.82;;;6.57;;
32214;SDS011;18708;53.124;23.190;2023-04-25T04:44:28;12.02;;;7.10;;
32214;SDS011;18708;53.124;23.190;2023-04-25T04:46:54;7.30;;;6.45;;
32214;SDS011;18708;53.124;23.190;2023-04-25T04:49:20;16.52;;;8.30;;
32214;SDS011;18708;53.124;23.190;2023-04-25T04:51:46;9.77;;;6.53;;
32214;SDS011;18708;53.124;23.190;2023-04-25T04:54:12;9.10;;;6.30;;
32214;SDS011;18708;53.124;23.190;2023-04-25T04:56:38;10.95;;;6.25;;
32214;SDS011;18708;53.124;23.190;2023-04-25T04:59:04;8.82;;;6.65;;
32214;SDS011;18708;53.124;23.190;2023-04-25T05:01:32;10.35;;;5.97;;
32214;SDS011;18708;53.124;23.190;2023-04-25T05:03:57;8.00;;;5.85;;
32214;SDS011;18708;53.124;23.190;2023-04-25T05:06:27;9.52;;;5.95;;
32214;SDS011;18708;53.124;23.190;2023-04-25T05:08:56;7.97;;;5.95;;
32214;SDS011;18708;53.124;23.190;2023-04-25T05:11:23;8.07;;;6.43;;
32214;SDS011;18708;53.124;23.190;2023-04-25T05:13:50;8.40;;;6.00;;
32214;SDS011;18708;53.124;23.190;2023-04-25T05:16:17;9.48;;;5.90;;
32214;SDS011;18708;53.124;23.190;2023-04-25T05:18:42;6.40;;;5.80;;
32214;SDS011;18708;53.124;23.190;2023-04-25T05:21:08;9.48;;;5.55;;
32214;SDS011;18708;53.124;23.190;2023-04-25T05:23:34;14.35;;;5.78;;
32214;SDS011;18708;53.124;23.190;2023-04-25T05:25:59;11.60;;;5.90;;
32214;SDS011;18708;53.124;23.190;2023-04-25T05:28:25;7.78;;;6.13;;
32214;SDS011;18708;53.124;23.190;2023-04-25T05:30:51;13.00;;;5.93;;
32214;SDS011;18708;53.124;23.190;2023-04-25T05:33:17;9.75;;;5.65;;
32214;SDS011;18708;53.124;23.190;2023-04-25T05:35:43;6.63;;;5.35;;
32214;SDS011;18708;53.124;23.190;2023-04-25T05:38:09;11.02;;;5.75;;
32214;SDS011;18708;53.124;23.190;2023-04-25T05:40:35;9.10;;;5.20;;
32214;SDS011;18708;53.124;23.190;2023-04-25T05:43:01;6.63;;;5.93;;
32214;SDS011;18708;53.124;23.190;2023-04-25T05:45:27;12.82;;;5.93;;
32214;SDS011;18708;53.124;23.190;2023-04-25T05:47:54;8.93;;;5.47;;
32214;SDS011;18708;53.124;23.190;2023-04-25T05:50:20;11.68;;;6.40;;
32214;SDS011;18708;53.124;23.190;2023-04-25T05:52:46;12.27;;;5.53;;
32214;SDS011;18708;53.124;23.190;2023-04-25T05:55:12;9.05;;;6.07;;
32214;SDS011;18708;53.124;23.190;2023-04-25T05:57:38;9.07;;;5.57;;
32214;SDS011;18708;53.124;23.190;2023-04-25T06:00:06;19.70;;;6.50;;
32214;SDS011;18708;53.124;23.190;2023-04-25T06:02:34;12.20;;;5.78;;
32214;SDS011;18708;53.124;23.190;2023-04-25T06:05:00;12.57;;;6.28;;
32214;SDS011;18708;53.124;23.190;2023-04-25T06:07:28;9.57;;;5.93;;
32214;SDS011;18708;53.124;23.190;2023-04-25T06:09:57;13.38;;;5.68;;
32214;SDS011;18708;53.124;23.190;2023-04-25T06:12:23;6.82;;;5.88;;
32214;SDS011;18708;53.124;23.190;2023-04-25T06:14:49;8.73;;;6.43;;
32214;SDS011;18708;53.124;23.190;2023-04-25T06:17:14;11.95;;;6.30;;
32214;SDS011;18708;53.124;23.190;2023-04-25T06:19:40;16.30;;;7.07;;
32214;SDS011;18708;53.124;23.190;2023-04-25T06:22:06;8.18;;;6.47;;
32214;SDS011;18708;53.124;23.190;2023-04-25T06:24:32;12.77;;;6.35;;
32214;SDS011;18708;53.124;23.190;2023-04-25T06:26:58;11.18;;;6.40;;
32214;SDS011;18708;53.124;23.190;2023-04-25T06:29:23;7.97;;;6.95;;
32214;SDS011;18708;53.124;23.190;2023-04-25T06:31:49;10.82;;;7.30;;
32214;SDS011;18708;53.124;23.190;2023-04-25T06:34:17;12.65;;;6.85;;
32214;SDS011;18708;53.124;23.190;2023-04-25T06:36:43;11.30;;;6.90;;
32214;SDS011;18708;53.124;23.190;2023-04-25T06:39:11;8.43;;;7.45;;
32214;SDS011;18708;53.124;23.190;2023-04-25T06:41:36;10.43;;;8.23;;
32214;SDS011;18708;53.124;23.190;2023-04-25T06:44:02;12.73;;;7.43;;
32214;SDS011;18708;53.124;23.190;2023-04-25T06:46:28;11.55;;;7.55;;
32214;SDS011;18708;53.124;23.190;2023-04-25T06:48:53;10.57;;;6.85;;
32214;SDS011;18708;53.124;23.190;2023-04-25T06:51:19;11.52;;;7.18;;
32214;SDS011;18708;53.124;23.190;2023-04-25T06:53:45;13.55;;;6.93;;
32214;SDS011;18708;53.124;23.190;2023-04-25T06:56:10;17.65;;;7.13;;
32214;SDS011;18708;53.124;23.190;2023-04-25T06:58:36;12.00;;;8.15;;
32214;SDS011;18708;53.124;23.190;2023-04-25T07:01:02;11.23;;;7.90;;
32214;SDS011;18708;53.124;23.190;2023-04-25T07:03:28;14.05;;;9.05;;
32214;SDS011;18708;53.124;23.190;2023-04-25T07:05:53;10.82;;;8.18;;
32214;SDS011;18708;53.124;23.190;2023-04-25T07:08:19;13.27;;;8.40;;
32214;SDS011;18708;53.124;23.190;2023-04-25T07:10:46;8.73;;;7.03;;
32214;SDS011;18708;53.124;23.190;2023-04-25T07:13:12;9.93;;;8.35;;
32214;SDS011;18708;53.124;23.190;2023-04-25T07:15:37;13.63;;;10.40;;
32214;SDS011;18708;53.124;23.190;2023-04-25T07:18:03;12.20;;;8.57;;
32214;SDS011;18708;53.124;23.190;2023-04-25T07:20:29;12.77;;;9.23;;
32214;SDS011;18708;53.124;23.190;2023-04-25T07:22:55;10.50;;;9.27;;
32214;SDS011;18708;53.124;23.190;2023-04-25T07:25:22;13.50;;;11.07;;
32214;SDS011;18708;53.124;23.190;2023-04-25T07:27:47;14.63;;;10.80;;
32214;SDS011;18708;53.124;23.190;2023-04-25T07:30:13;12.65;;;9.30;;
32214;SDS011;18708;53.124;23.190;2023-04-25T07:32:39;25.27;;;11.05;;
32214;SDS011;18708;53.124;23.190;2023-04-25T07:35:05;12.77;;;9.60;;
32214;SDS011;18708;53.124;23.190;2023-04-25T07:37:32;15.55;;;10.55;;
32214;SDS011;18708;53.124;23.190;2023-04-25T07:39:59;15.45;;;10.18;;
32214;SDS011;18708;53.124;23.190;2023-04-25T07:42:24;15.10;;;9.85;;
32214;SDS011;18708;53.124;23.190;2023-04-25T07:44:50;12.45;;;10.07;;
32214;SDS011;18708;53.124;23.190;2023-04-25T07:47:16;13.07;;;10.05;;
32214;SDS011;18708;53.124;23.190;2023-04-25T07:49:44;15.43;;;9.90;;
32214;SDS011;18708;53.124;23.190;2023-04-25T07:52:10;14.15;;;10.57;;
32214;SDS011;18708;53.124;23.190;2023-04-25T07:54:36;12.63;;;9.50;;
32214;SDS011;18708;53.124;23.190;2023-04-25T07:57:01;18.33;;;9.73;;
32214;SDS011;18708;53.124;23.190;2023-04-25T07:59:27;13.05;;;10.13;;
32214;SDS011;18708;53.124;23.190;2023-04-25T08:01:53;11.00;;;9.82;;
32214;SDS011;18708;53.124;23.190;2023-04-25T08:04:18;13.95;;;9.20;;
32214;SDS011;18708;53.124;23.190;2023-04-25T08:06:44;11.30;;;9.27;;
32214;SDS011;18708;53.124;23.190;2023-04-25T08:09:10;11.80;;;9.48;;
32214;SDS011;18708;53.124;23.190;2023-04-25T08:11:36;11.50;;;8.73;;
32214;SDS011;18708;53.124;23.190;2023-04-25T08:14:02;15.70;;;9.80;;
32214;SDS011;18708;53.124;23.190;2023-04-25T08:16:28;12.52;;;9.63;;
32214;SDS011;18708;53.124;23.190;2023-04-25T08:18:53;14.95;;;10.00;;
32214;SDS011;18708;53.124;23.190;2023-04-25T08:21:19;13.50;;;9.98;;
32214;SDS011;18708;53.124;23.190;2023-04-25T08:23:45;13.93;;;9.75;;
32214;SDS011;18708;53.124;23.190;2023-04-25T08:26:11;11.38;;;10.15;;
32214;SDS011;18708;53.124;23.190;2023-04-25T08:28:37;14.05;;;10.55;;
32214;SDS011;18708;53.124;23.190;2023-04-25T08:31:03;17.33;;;10.55;;
32214;SDS011;18708;53.124;23.190;2023-04-25T08:33:29;13.35;;;9.63;;
32214;SDS011;18708;53.124;23.190;2023-04-25T08:35:55;13.50;;;10.35;;
32214;SDS011;18708;53.124;23.190;2023-04-25T08:38:21;13.13;;;10.90;;
32214;SDS011;18708;53.124;23.190;2023-04-25T08:40:49;14.57;;;11.02;;
32214;SDS011;18708;53.124;23.190;2023-04-25T08:43:18;14.63;;;10.52;;
32214;SDS011;18708;53.124;23.190;2023-04-25T08:45:45;15.32;;;10.90;;
32214;SDS011;18708;53.124;23.190;2023-04-25T08:48:12;14.27;;;10.50;;
32214;SDS011;18708;53.124;23.190;2023-04-25T08:50:45;14.60;;;11.07;;
32214;SDS011;18708;53.124;23.190;2023-04-25T08:53:16;11.63;;;10.40;;
32214;SDS011;18708;53.124;23.190;2023-04-25T08:55:46;13.43;;;10.88;;
32214;SDS011;18708;53.124;23.190;2023-04-25T08:58:12;14.02;;;10.57;;
32214;SDS011;18708;53.124;23.190;2023-04-25T09:00:38;13.88;;;11.95;;
32214;SDS011;18708;53.124;23.190;2023-04-25T09:03:04;14.48;;;10.82;;
32214;SDS011;18708;53.124;23.190;2023-04-25T09:05:33;17.02;;;10.88;;
32214;SDS011;18708;53.124;23.190;2023-04-25T09:08:00;15.63;;;10.27;;
32214;SDS011;18708;53.124;23.190;2023-04-25T09:10:27;14.18;;;10.02;;
32214;SDS011;18708;53.124;23.190;2023-04-25T09:15:28;13.02;;;9.68;;
32214;SDS011;18708;53.124;23.190;2023-04-25T09:17:58;16.10;;;9.95;;
32214;SDS011;18708;53.124;23.190;2023-04-25T09:20:24;13.52;;;9.98;;
32214;SDS011;18708;53.124;23.190;2023-04-25T09:23:11;12.13;;;10.32;;
32214;SDS011;18708;53.124;23.190;2023-04-25T09:25:37;13.77;;;9.73;;
32214;SDS011;18708;53.124;23.190;2023-04-25T09:28:05;17.55;;;10.02;;
32214;SDS011;18708;53.124;23.190;2023-04-25T09:30:32;18.80;;;10.50;;
32214;SDS011;18708;53.124;23.190;2023-04-25T09:33:09;13.27;;;10.82;;
32214;SDS011;18708;53.124;23.190;2023-04-25T09:35:42;14.68;;;10.70;;
32214;SDS011;18708;53.124;23.190;2023-04-25T09:38:14;14.63;;;11.07;;
32214;SDS011;18708;53.124;23.190;2023-04-25T09:40:41;17.77;;;10.63;;
32214;SDS011;18708;53.124;23.190;2023-04-25T09:43:29;16.98;;;10.13;;
32214;SDS011;18708;53.124;23.190;2023-04-25T09:45:54;13.70;;;10.00;;
32214;SDS011;18708;53.124;23.190;2023-04-25T09:48:23;16.88;;;10.55;;
32214;SDS011;18708;53.124;23.190;2023-04-25T09:53:36;14.82;;;10.90;;
32214;SDS011;18708;53.124;23.190;2023-04-25T09:56:07;14.32;;;10.52;;
32214;SDS011;18708;53.124;23.190;2023-04-25T09:58:34;12.60;;;10.60;;
32214;SDS011;18708;53.124;23.190;2023-04-25T10:01:02;12.85;;;10.27;;
32214;SDS011;18708;53.124;23.190;2023-04-25T10:03:33;13.60;;;10.13;;
32214;SDS011;18708;53.124;23.190;2023-04-25T10:06:01;12.73;;;9.15;;
32214;SDS011;18708;53.124;23.190;2023-04-25T10:08:34;10.63;;;9.15;;
32214;SDS011;18708;53.124;23.190;2023-04-25T10:11:04;17.15;;;8.68;;
32214;SDS011;18708;53.124;23.190;2023-04-25T10:13:32;12.32;;;8.57;;
32214;SDS011;18708;53.124;23.190;2023-04-25T10:15:59;13.13;;;9.10;;
32214;SDS011;18708;53.124;23.190;2023-04-25T10:18:30;12.85;;;9.68;;
32214;SDS011;18708;53.124;23.190;2023-04-25T10:21:00;12.70;;;9.30;;
32214;SDS011;18708;53.124;23.190;2023-04-25T10:23:29;12.65;;;9.48;;
32214;SDS011;18708;53.124;23.190;2023-04-25T10:25:56;12.25;;;8.95;;
32214;SDS011;18708;53.124;23.190;2023-04-25T10:28:23;14.85;;;9.45;;
32214;SDS011;18708;53.124;23.190;2023-04-25T10:31:01;16.00;;;10.32;;
32214;SDS011;18708;53.124;23.190;2023-04-25T10:33:33;12.60;;;9.65;;
32214;SDS011;18708;53.124;23.190;2023-04-25T10:36:10;11.13;;;8.90;;
32214;SDS011;18708;53.124;23.190;2023-04-25T10:38:40;10.65;;;9.30;;
32214;SDS011;18708;53.124;23.190;2023-04-25T10:41:08;11.75;;;8.55;;
32214;SDS011;18708;53.124;23.190;2023-04-25T10:43:39;10.40;;;9.40;;
32214;SDS011;18708;53.124;23.190;2023-04-25T10:48:51;9.52;;;8.63;;
32214;SDS011;18708;53.124;23.190;2023-04-25T10:51:24;11.32;;;8.40;;
32214;SDS011;18708;53.124;23.190;2023-04-25T10:54:03;10.07;;;8.02;;
32214;SDS011;18708;53.124;23.190;2023-04-25T10:56:30;12.73;;;9.85;;
32214;SDS011;18708;53.124;23.190;2023-04-25T10:59:13;10.40;;;9.25;;
32214;SDS011;18708;53.124;23.190;2023-04-25T11:04:24;13.98;;;8.65;;
32214;SDS011;18708;53.124;23.190;2023-04-25T11:07:00;15.77;;;9.13;;
32214;SDS011;18708;53.124;23.190;2023-04-25T11:09:32;14.73;;;10.07;;
32214;SDS011;18708;53.124;23.190;2023-04-25T11:11:59;20.92;;;10.35;;
32214;SDS011;18708;53.124;23.190;2023-04-25T11:14:25;17.70;;;10.63;;
32214;SDS011;18708;53.124;23.190;2023-04-25T11:16:58;10.68;;;9.57;;
32214;SDS011;18708;53.124;23.190;2023-04-25T11:19:29;15.18;;;9.63;;
32214;SDS011;18708;53.124;23.190;2023-04-25T11:21:58;12.95;;;9.35;;
32214;SDS011;18708;53.124;23.190;2023-04-25T11:24:43;13.85;;;10.13;;
32214;SDS011;18708;53.124;23.190;2023-04-25T11:27:10;14.23;;;9.68;;
32214;SDS011;18708;53.124;23.190;2023-04-25T11:29:35;14.40;;;10.45;;
32214;SDS011;18708;53.124;23.190;2023-04-25T11:32:01;11.15;;;10.02;;
32214;SDS011;18708;53.124;23.190;2023-04-25T11:34:30;12.27;;;9.95;;
32214;SDS011;18708;53.124;23.190;2023-04-25T11:36:58;15.18;;;10.27;;
32214;SDS011;18708;53.124;23.190;2023-04-25T11:39:24;15.13;;;9.88;;
32214;SDS011;18708;53.124;23.190;2023-04-25T11:41:51;12.98;;;11.52;;
32214;SDS011;18708;53.124;23.190;2023-04-25T11:44:18;11.38;;;9.52;;
32214;SDS011;18708;53.124;23.190;2023-04-25T11:46:45;14.13;;;9.95;;
32214;SDS011;18708;53.124;23.190;2023-04-25T11:49:11;15.45;;;9.15;;
32214;SDS011;18708;53.124;23.190;2023-04-25T11:51:43;13.80;;;8.73;;
32214;SDS011;18708;53.124;23.190;2023-04-25T11:54:11;13.82;;;9.85;;
32214;SDS011;18708;53.124;23.190;2023-04-25T11:56:41;11.65;;;9.25;;
32214;SDS011;18708;53.124;23.190;2023-04-25T11:59:08;10.70;;;8.95;;
32214;SDS011;18708;53.124;23.190;2023-04-25T12:01:35;11.40;;;8.73;;
32214;SDS011;18708;53.124;23.190;2023-04-25T12:04:15;13.18;;;10.52;;
32214;SDS011;18708;53.124;23.190;2023-04-25T12:06:43;16.23;;;12.00;;
32214;SDS011;18708;53.124;23.190;2023-04-25T12:09:11;15.27;;;11.52;;
32214;SDS011;18708;53.124;23.190;2023-04-25T12:12:02;16.50;;;12.07;;
32214;SDS011;18708;53.124;23.190;2023-04-25T12:14:31;18.98;;;13.18;;
32214;SDS011;18708;53.124;23.190;2023-04-25T12:16:59;14.43;;;12.38;;
32214;SDS011;18708;53.124;23.190;2023-04-25T12:19:26;22.30;;;13.00;;
32214;SDS011;18708;53.124;23.190;2023-04-25T12:21:56;15.27;;;12.50;;
32214;SDS011;18708;53.124;23.190;2023-04-25T12:24:22;14.85;;;12.93;;
32214;SDS011;18708;53.124;23.190;2023-04-25T12:29:17;17.20;;;12.95;;
32214;SDS011;18708;53.124;23.190;2023-04-25T12:31:47;19.15;;;12.23;;
32214;SDS011;18708;53.124;23.190;2023-04-25T12:34:13;16.58;;;13.65;;
32214;SDS011;18708;53.124;23.190;2023-04-25T12:36:39;16.58;;;13.18;;
32214;SDS011;18708;53.124;23.190;2023-04-25T12:39:05;13.90;;;12.40;;
32214;SDS011;18708;53.124;23.190;2023-04-25T12:41:32;14.13;;;12.65;;
32214;SDS011;18708;53.124;23.190;2023-04-25T12:43:57;15.07;;;13.35;;
32214;SDS011;18708;53.124;23.190;2023-04-25T12:46:23;24.70;;;13.70;;
32214;SDS011;18708;53.124;23.190;2023-04-25T12:48:49;14.75;;;11.77;;
32214;SDS011;18708;53.124;23.190;2023-04-25T12:51:15;13.75;;;8.98;;
32214;SDS011;18708;53.124;23.190;2023-04-25T12:53:41;7.95;;;4.72;;
32214;SDS011;18708;53.124;23.190;2023-04-25T12:56:07;9.13;;;3.90;;
32214;SDS011;18708;53.124;23.190;2023-04-25T12:58:33;10.63;;;3.72;;
32214;SDS011;18708;53.124;23.190;2023-04-25T13:00:59;8.35;;;3.40;;
32214;SDS011;18708;53.124;23.190;2023-04-25T13:03:25;3.78;;;3.00;;
32214;SDS011;18708;53.124;23.190;2023-04-25T13:05:53;4.90;;;3.00;;
32214;SDS011;18708;53.124;23.190;2023-04-25T13:08:19;6.05;;;3.22;;
32214;SDS011;18708;53.124;23.190;2023-04-25T13:10:45;5.82;;;3.38;;
32214;SDS011;18708;53.124;23.190;2023-04-25T13:13:12;8.77;;;3.55;;
32214;SDS011;18708;53.124;23.190;2023-04-25T13:15:38;4.20;;;3.10;;
32214;SDS011;18708;53.124;23.190;2023-04-25T13:18:03;8.07;;;3.47;;
32214;SDS011;18708;53.124;23.190;2023-04-25T13:20:30;6.70;;;4.50;;
32214;SDS011;18708;53.124;23.190;2023-04-25T13:22:56;4.82;;;3.67;;
32214;SDS011;18708;53.124;23.190;2023-04-25T13:25:22;5.13;;;3.83;;
32214;SDS011;18708;53.124;23.190;2023-04-25T13:27:48;4.80;;;4.18;;
32214;SDS011;18708;53.124;23.190;2023-04-25T13:30:14;6.63;;;3.88;;
32214;SDS011;18708;53.124;23.190;2023-04-25T13:32:39;7.65;;;4.30;;
32214;SDS011;18708;53.124;23.190;2023-04-25T13:35:07;7.85;;;4.80;;
32214;SDS011;18708;53.124;23.190;2023-04-25T13:37:35;4.85;;;4.28;;
32214;SDS011;18708;53.124;23.190;2023-04-25T13:40:02;4.15;;;3.70;;
32214;SDS011;18708;53.124;23.190;2023-04-25T13:42:30;6.20;;;4.00;;
32214;SDS011;18708;53.124;23.190;2023-04-25T13:44:56;5.05;;;3.45;;
32214;SDS011;18708;53.124;23.190;2023-04-25T13:47:22;4.50;;;3.58;;
32214;SDS011;18708;53.124;23.190;2023-04-25T13:49:48;4.75;;;3.83;;
32214;SDS011;18708;53.124;23.190;2023-04-25T13:52:14;4.22;;;3.78;;
32214;SDS011;18708;53.124;23.190;2023-04-25T13:54:40;5.57;;;4.15;;
32214;SDS011;18708;53.124;23.190;2023-04-25T13:57:08;8.30;;;4.63;;
32214;SDS011;18708;53.124;23.190;2023-04-25T13:59:36;10.75;;;4.60;;
32214;SDS011;18708;53.124;23.190;2023-04-25T14:02:02;5.43;;;4.00;;
32214;SDS011;18708;53.124;23.190;2023-04-25T14:04:28;7.00;;;4.40;;
32214;SDS011;18708;53.124;23.190;2023-04-25T14:06:53;7.30;;;4.35;;
32214;SDS011;18708;53.124;23.190;2023-04-25T14:09:20;6.75;;;4.28;;
32214;SDS011;18708;53.124;23.190;2023-04-25T14:11:50;13.65;;;5.28;;
32214;SDS011;18708;53.124;23.190;2023-04-25T14:14:17;7.32;;;4.82;;
32214;SDS011;18708;53.124;23.190;2023-04-25T14:16:43;6.20;;;4.18;;
32214;SDS011;18708;53.124;23.190;2023-04-25T14:19:09;6.72;;;3.92;;
32214;SDS011;18708;53.124;23.190;2023-04-25T14:21:34;5.55;;;4.30;;
32214;SDS011;18708;53.124;23.190;2023-04-25T14:24:00;4.40;;;4.00;;
32214;SDS011;18708;53.124;23.190;2023-04-25T14:26:26;5.95;;;4.60;;
32214;SDS011;18708;53.124;23.190;2023-04-25T14:28:51;6.50;;;4.50;;
32214;SDS011;18708;53.124;23.190;2023-04-25T14:31:20;6.75;;;4.28;;
32214;SDS011;18708;53.124;23.190;2023-04-25T14:33:46;6.57;;;4.80;;
32214;SDS011;18708;53.124;23.190;2023-04-25T14:36:11;8.38;;;4.93;;
32214;SDS011;18708;53.124;23.190;2023-04-25T14:38:37;4.97;;;3.97;;